Time;durP1;ratioP1;P1;durP2;ratioP2;P2;SDS_P1;SDS_P2;PMS_P1;PMS_P2;Temp;Humidity;BMP_temperature;BMP_pressure;BME280_temperature;BME280_humidity;BME280_pressure;Samples;Min_cycle;Max_cycle;Signal;HPM_P1;HPM_P2
2022/01/06 00:03:09;;;;;;;0.85;0.40;;;;;;;;;;12542306;28;20033;-75
2022/01/06 00:09:15;;;;;;;0.30;0.30;;;;;;;;;;12543074;28;20037;-75
2022/01/06 00:15:36;;;;;;;0.20;0.20;;;;;;;;;;12543568;28;20056;-74
2022/01/06 00:27:59;;;;;;;0.22;0.22;;;;;;;;;;12541634;28;20037;-73
2022/01/06 00:34:02;;;;;;;0.43;0.23;;;;;;;;;;12541529;28;20052;-73
2022/01/06 00:40:04;;;;;;;0.20;0.20;;;;;;;;;;12542328;28;20406;-73
2022/01/06 00:46:06;;;;;;;0.70;0.40;;;;;;;;;;12542370;28;20037;-73
2022/01/06 00:52:07;;;;;;;0.68;0.20;;;;;;;;;;12548807;28;20033;-73
2022/01/06 00:58:10;;;;;;;0.28;0.20;;;;;;;;;;12549698;28;20049;-73
2022/01/06 01:04:11;;;;;;;0.53;0.23;;;;;;;;;;12532505;28;20028;-73
2022/01/06 01:10:13;;;;;;;0.20;0.20;;;;;;;;;;12548781;28;20056;-73
2022/01/06 01:16:25;;;;;;;0.25;0.25;;;;;;;;;;12548827;28;20053;-73
2022/01/06 01:22:26;;;;;;;0.30;0.30;;;;;;;;;;12548143;28;20033;-73
2022/01/06 01:28:33;;;;;;;0.30;0.30;;;;;;;;;;12548226;28;20040;-73
2022/01/06 01:34:35;;;;;;;0.20;0.20;;;;;;;;;;12549025;28;20052;-73
2022/01/06 01:40:37;;;;;;;0.38;0.38;;;;;;;;;;12548806;28;20052;-73
2022/01/06 01:46:44;;;;;;;0.20;0.20;;;;;;;;;;12547547;28;20391;-73
2022/01/06 01:52:50;;;;;;;0.28;0.28;;;;;;;;;;12546784;28;20091;-73
2022/01/06 01:58:51;;;;;;;0.30;0.30;;;;;;;;;;12547384;28;20045;-73
2022/01/06 02:04:53;;;;;;;0.20;0.20;;;;;;;;;;12546824;28;20036;-73
2022/01/06 02:10:55;;;;;;;0.28;0.28;;;;;;;;;;12546037;28;20057;-73
2022/01/06 02:16:57;;;;;;;0.20;0.20;;;;;;;;;;12546100;28;20037;-73
2022/01/06 02:22:58;;;;;;;0.20;0.20;;;;;;;;;;12546450;28;20032;-73
2022/01/06 02:29:00;;;;;;;0.20;0.20;;;;;;;;;;12546587;28;20033;-73
2022/01/06 02:35:06;;;;;;;0.20;0.20;;;;;;;;;;12547196;28;20032;-74
2022/01/06 02:41:08;;;;;;;0.75;0.47;;;;;;;;;;12546017;28;20202;-73
2022/01/06 02:47:10;;;;;;;0.10;0.10;;;;;;;;;;12544471;28;20037;-73
2022/01/06 02:53:12;;;;;;;0.30;0.30;;;;;;;;;;12544257;28;20048;-72
2022/01/06 02:59:13;;;;;;;0.20;0.20;;;;;;;;;;12543920;28;20051;-73
2022/01/06 03:05:16;;;;;;;0.20;0.20;;;;;;;;;;12544189;28;20040;-73
2022/01/06 03:11:24;;;;;;;0.22;0.22;;;;;;;;;;12543871;28;20056;-73
2022/01/06 03:17:27;;;;;;;0.20;0.20;;;;;;;;;;12526961;28;20052;-72
2022/01/06 03:23:29;;;;;;;0.20;0.20;;;;;;;;;;12544259;28;20040;-73
2022/01/06 03:29:30;;;;;;;0.40;0.40;;;;;;;;;;12542854;28;20041;-75
2022/01/06 03:35:32;;;;;;;0.20;0.20;;;;;;;;;;12544043;28;20036;-73
2022/01/06 03:41:34;;;;;;;0.30;0.30;;;;;;;;;;12544192;28;20036;-74
2022/01/06 03:47:36;;;;;;;0.27;0.27;;;;;;;;;;12542355;28;20040;-73
2022/01/06 03:53:38;;;;;;;0.20;0.20;;;;;;;;;;12543541;28;20025;-73
2022/01/06 03:59:39;;;;;;;0.60;0.60;;;;;;;;;;12543487;28;20041;-73
2022/01/06 04:05:41;;;;;;;0.30;0.30;;;;;;;;;;12543145;28;20048;-73
2022/01/06 04:11:43;;;;;;;0.30;0.30;;;;;;;;;;12543717;28;20486;-73
2022/01/06 04:17:45;;;;;;;0.40;0.40;;;;;;;;;;12542708;28;20514;-73
2022/01/06 04:23:47;;;;;;;0.30;0.30;;;;;;;;;;12548585;28;20029;-73
2022/01/06 04:29:49;;;;;;;0.20;0.20;;;;;;;;;;12550849;28;20487;-73
2022/01/06 04:35:50;;;;;;;0.40;0.40;;;;;;;;;;12551751;28;20048;-73
2022/01/06 04:41:52;;;;;;;0.30;0.30;;;;;;;;;;12551778;28;20033;-74
2022/01/06 04:47:54;;;;;;;0.30;0.30;;;;;;;;;;12550289;28;20028;-74
2022/01/06 04:53:55;;;;;;;0.40;0.40;;;;;;;;;;12550314;28;20497;-74
2022/01/06 04:59:57;;;;;;;0.40;0.40;;;;;;;;;;12550817;28;20048;-73
2022/01/06 05:05:59;;;;;;;0.30;0.30;;;;;;;;;;12550672;28;20418;-73
2022/01/06 05:12:00;;;;;;;0.60;0.60;;;;;;;;;;12550152;28;20048;-73
2022/01/06 05:18:02;;;;;;;0.55;0.55;;;;;;;;;;12549934;28;20048;-74
2022/01/06 05:24:11;;;;;;;0.90;0.90;;;;;;;;;;12550891;28;20033;-74
2022/01/06 05:30:13;;;;;;;0.80;0.80;;;;;;;;;;12547982;28;20033;-74
2022/01/06 05:36:15;;;;;;;0.70;0.70;;;;;;;;;;12547210;28;20048;-73
2022/01/06 05:42:17;;;;;;;1.02;0.98;;;;;;;;;;12548841;28;20037;-73
2022/01/06 05:48:19;;;;;;;0.77;0.77;;;;;;;;;;12547102;28;20214;-74
2022/01/06 05:54:20;;;;;;;8.07;7.28;;;;;;;;;;12547561;28;20025;-73
2022/01/06 06:00:22;;;;;;;2.58;2.47;;;;;;;;;;12547902;28;20068;-74
2022/01/06 06:06:24;;;;;;;1.90;1.80;;;;;;;;;;12547706;28;20052;-74
2022/01/06 06:12:26;;;;;;;1.80;1.70;;;;;;;;;;12547492;28;20052;-73
2022/01/06 06:18:27;;;;;;;2.40;2.30;;;;;;;;;;12547043;28;20052;-73
2022/01/06 06:24:29;;;;;;;2.72;2.53;;;;;;;;;;12546050;28;20032;-73
2022/01/06 06:30:31;;;;;;;2.97;2.78;;;;;;;;;;12545337;28;20045;-74
2022/01/06 06:36:32;;;;;;;3.47;3.28;;;;;;;;;;12544999;28;20068;-72
2022/01/06 06:42:34;;;;;;;3.92;3.55;;;;;;;;;;12544610;28;20033;-72
2022/01/06 06:48:36;;;;;;;4.00;3.70;;;;;;;;;;12543897;28;20032;-73
2022/01/06 06:54:38;;;;;;;4.50;4.20;;;;;;;;;;12544355;28;20044;-73
2022/01/06 07:00:39;;;;;;;4.32;4.03;;;;;;;;;;12545726;28;20406;-73
2022/01/06 07:06:41;;;;;;;4.28;3.97;;;;;;;;;;12544586;28;20035;-72
2022/01/06 07:12:44;;;;;;;5.32;4.93;;;;;;;;;;12544728;28;20056;-73
2022/01/06 07:18:47;;;;;;;5.47;5.07;;;;;;;;;;12543346;28;20052;-73
2022/01/06 07:24:48;;;;;;;5.18;4.78;;;;;;;;;;12526837;28;20040;-73
2022/01/06 07:30:50;;;;;;;6.70;6.13;;;;;;;;;;12543052;28;20041;-73
2022/01/06 07:36:52;;;;;;;20.30;18.00;;;;;;;;;;12543919;28;20041;-72
2022/01/06 07:42:54;;;;;;;10.40;9.40;;;;;;;;;;12544429;28;20477;-73
2022/01/06 07:48:57;;;;;;;10.65;9.65;;;;;;;;;;12525695;28;20044;-73
2022/01/06 07:54:58;;;;;;;12.35;11.25;;;;;;;;;;12544740;28;20485;-73
2022/01/06 08:01:01;;;;;;;11.30;10.30;;;;;;;;;;12551418;28;20052;-74
2022/01/06 08:07:03;;;;;;;12.15;11.15;;;;;;;;;;12553043;28;20029;-73
2022/01/06 08:13:04;;;;;;;12.35;11.35;;;;;;;;;;12553117;28;20045;-73
2022/01/06 08:19:06;;;;;;;9.65;8.98;;;;;;;;;;12552304;28;20041;-73
2022/01/06 08:25:08;;;;;;;11.43;10.52;;;;;;;;;;12553610;28;20039;-73
2022/01/06 08:31:12;;;;;;;10.40;9.63;;;;;;;;;;12552070;28;20041;-73
2022/01/06 08:42:53;;;;;;;11.52;10.63;;;;;;;;;;12586934;28;20493;-72
2022/01/06 08:48:55;;;;;;;11.00;10.10;;;;;;;;;;12586751;28;20036;-72
2022/01/06 08:54:57;;;;;;;8.37;7.67;;;;;;;;;;12587337;28;20041;-73
2022/01/06 09:00:59;;;;;;;8.40;7.80;;;;;;;;;;12588465;28;20052;-73
2022/01/06 09:07:02;;;;;;;7.65;7.05;;;;;;;;;;12567894;28;20028;-73
2022/01/06 09:13:05;;;;;;;10.52;9.57;;;;;;;;;;12585705;28;20413;-74
2022/01/06 09:19:06;;;;;;;9.43;8.73;;;;;;;;;;12586463;28;20420;-73
2022/01/06 09:25:08;;;;;;;6.70;6.20;;;;;;;;;;12583576;28;20044;-73
2022/01/06 09:31:10;;;;;;;7.83;7.23;;;;;;;;;;12584957;28;20512;-73
2022/01/06 09:37:12;;;;;;;6.53;6.03;;;;;;;;;;12584230;28;20053;-74
2022/01/06 09:43:14;;;;;;;8.57;7.97;;;;;;;;;;12582918;28;20051;-73
2022/01/06 09:49:16;;;;;;;8.37;7.77;;;;;;;;;;12577058;28;20040;-73
2022/01/06 09:55:19;;;;;;;8.23;7.63;;;;;;;;;;12549867;28;20047;-73
2022/01/06 10:01:21;;;;;;;6.53;6.03;;;;;;;;;;12549038;28;20037;-73
2022/01/06 10:07:23;;;;;;;7.97;7.38;;;;;;;;;;12548593;28;20040;-73
2022/01/06 10:13:27;;;;;;;7.60;7.00;;;;;;;;;;12548636;28;20040;-73
2022/01/06 10:19:29;;;;;;;5.78;5.38;;;;;;;;;;12549526;28;20060;-74
2022/01/06 10:25:38;;;;;;;6.17;5.67;;;;;;;;;;12549326;28;20037;-73
2022/01/06 10:31:39;;;;;;;6.95;6.45;;;;;;;;;;12548198;28;20124;-74
2022/01/06 10:37:47;;;;;;;5.72;5.32;;;;;;;;;;12547823;28;20061;-73
2022/01/06 10:43:49;;;;;;;5.03;4.63;;;;;;;;;;12548763;28;20402;-73
2022/01/06 10:49:51;;;;;;;5.65;5.25;;;;;;;;;;12530882;28;20043;-74
2022/01/06 10:55:53;;;;;;;5.72;5.32;;;;;;;;;;12546695;28;20032;-74
2022/01/06 11:01:55;;;;;;;6.70;6.20;;;;;;;;;;12545078;28;20048;-73
2022/01/06 11:07:57;;;;;;;6.72;6.13;;;;;;;;;;12547386;28;20043;-73
2022/01/06 11:14:06;;;;;;;5.38;4.88;;;;;;;;;;12547218;28;20036;-74
2022/01/06 11:20:08;;;;;;;4.60;4.20;;;;;;;;;;12545329;28;20040;-73
2022/01/06 11:26:16;;;;;;;4.03;3.72;;;;;;;;;;12545108;28;20044;-73
2022/01/06 11:32:22;;;;;;;3.72;3.53;;;;;;;;;;12528159;28;20040;-74
2022/01/06 11:38:26;;;;;;;3.97;3.67;;;;;;;;;;12544649;28;20053;-73
2022/01/06 11:44:30;;;;;;;2.92;2.50;;;;;;;;;;12544349;28;20029;-74
2022/01/06 11:50:39;;;;;;;3.17;2.88;;;;;;;;;;12545286;28;20025;-74
2022/01/06 11:56:59;;;;;;;2.78;2.58;;;;;;;;;;12544958;28;20051;-74
2022/01/06 12:03:02;;;;;;;2.25;2.05;;;;;;;;;;12543282;28;20048;-74
2022/01/06 12:09:14;;;;;;;1.65;1.55;;;;;;;;;;12544976;28;20037;-73
2022/01/06 12:15:17;;;;;;;1.50;1.40;;;;;;;;;;12543906;28;20024;-73
2022/01/06 12:21:18;;;;;;;1.80;1.70;;;;;;;;;;12543278;28;20049;-73
2022/01/06 12:27:20;;;;;;;1.30;1.20;;;;;;;;;;12542849;28;20032;-74
2022/01/06 12:33:22;;;;;;;1.10;1.00;;;;;;;;;;12542693;28;20032;-73
2022/01/06 12:39:24;;;;;;;1.40;1.30;;;;;;;;;;12542129;28;20087;-73
2022/01/06 12:45:25;;;;;;;0.80;0.80;;;;;;;;;;12545030;28;20033;-73
2022/01/06 12:51:29;;;;;;;0.60;0.60;;;;;;;;;;12543584;28;20025;-73
2022/01/06 12:57:31;;;;;;;1.00;1.00;;;;;;;;;;12542150;28;20060;-73
2022/01/06 13:03:37;;;;;;;0.50;0.50;;;;;;;;;;12543052;28;20064;-73
2022/01/06 13:09:40;;;;;;;0.70;0.70;;;;;;;;;;12543684;28;20384;-73
2022/01/06 13:15:42;;;;;;;0.80;0.80;;;;;;;;;;12542942;28;20037;-73
2022/01/06 13:21:51;;;;;;;0.57;0.57;;;;;;;;;;12542437;28;20056;-73
2022/01/06 13:28:06;;;;;;;0.60;0.60;;;;;;;;;;12548300;28;20355;-74
2022/01/06 13:34:08;;;;;;;0.70;0.70;;;;;;;;;;12552268;28;20064;-73
2022/01/06 13:40:11;;;;;;;0.82;0.70;;;;;;;;;;12550146;28;20414;-73
2022/01/06 13:46:21;;;;;;;0.50;0.50;;;;;;;;;;12550547;28;20471;-72
2022/01/06 13:52:24;;;;;;;0.30;0.30;;;;;;;;;;12533083;28;20483;-73
2022/01/06 13:58:26;;;;;;;2.47;2.28;;;;;;;;;;12550593;28;20045;-73
2022/01/06 14:04:33;;;;;;;0.83;0.83;;;;;;;;;;12550256;28;20029;-73
2022/01/06 14:10:34;;;;;;;1.48;1.38;;;;;;;;;;12549559;28;20295;-73
2022/01/06 14:16:36;;;;;;;0.82;0.82;;;;;;;;;;12549853;28;20470;-73
2022/01/06 14:22:37;;;;;;;1.15;1.10;;;;;;;;;;12548108;28;20047;-73
2022/01/06 14:28:39;;;;;;;1.30;1.20;;;;;;;;;;12549255;28;20037;-73
2022/01/06 14:34:41;;;;;;;1.15;1.10;;;;;;;;;;12547720;28;20517;-73
2022/01/06 14:40:43;;;;;;;1.00;1.00;;;;;;;;;;12548150;28;20410;-72
2022/01/06 14:46:46;;;;;;;2.13;1.40;;;;;;;;;;12546911;28;20041;-73
2022/01/06 14:52:48;;;;;;;1.48;1.38;;;;;;;;;;12548031;28;20059;-73
2022/01/06 14:58:49;;;;;;;1.10;1.00;;;;;;;;;;12547834;28;20057;-73
2022/01/06 15:04:51;;;;;;;2.55;2.35;;;;;;;;;;12547544;28;20040;-74
2022/01/06 15:10:53;;;;;;;1.85;1.67;;;;;;;;;;12546003;28;20041;-73
2022/01/06 15:16:54;;;;;;;1.60;1.50;;;;;;;;;;12545538;28;20489;-74
2022/01/06 15:22:56;;;;;;;1.60;1.50;;;;;;;;;;12545754;28;20041;-73
2022/01/06 15:28:58;;;;;;;1.73;1.40;;;;;;;;;;12545173;28;20554;-73
2022/01/06 15:34:59;;;;;;;1.42;1.33;;;;;;;;;;12544735;28;20033;-73
2022/01/06 15:41:02;;;;;;;1.35;1.25;;;;;;;;;;12545420;28;20061;-73
2022/01/06 15:47:04;;;;;;;2.22;1.85;;;;;;;;;;12543852;28;20036;-73
2022/01/06 15:53:06;;;;;;;2.92;2.50;;;;;;;;;;12544083;28;20029;-74
2022/01/06 15:59:10;;;;;;;5.00;3.75;;;;;;;;;;12543642;28;20049;-74
2022/01/06 16:05:12;;;;;;;4.68;3.88;;;;;;;;;;12544455;28;20040;-74
2022/01/06 16:11:14;;;;;;;5.78;4.78;;;;;;;;;;12544873;28;20035;-74
2022/01/06 16:17:15;;;;;;;7.18;6.05;;;;;;;;;;12544273;28;20037;-74
2022/01/06 16:23:17;;;;;;;5.50;5.00;;;;;;;;;;12543450;28;20049;-74
2022/01/06 16:29:19;;;;;;;5.10;4.35;;;;;;;;;;12542760;28;20041;-74
2022/01/06 16:35:20;;;;;;;6.38;5.78;;;;;;;;;;12543259;28;20367;-72
2022/01/06 16:41:25;;;;;;;3.97;3.58;;;;;;;;;;12541785;28;20068;-74
2022/01/06 16:47:27;;;;;;;4.85;4.45;;;;;;;;;;12543172;28;20040;-74
2022/01/06 16:53:29;;;;;;;6.30;5.43;;;;;;;;;;12541915;28;20056;-74
2022/01/06 16:59:31;;;;;;;5.82;5.07;;;;;;;;;;12544212;28;20044;-73
2022/01/06 17:05:33;;;;;;;3.60;3.30;;;;;;;;;;12551932;28;20036;-74
2022/01/06 17:11:35;;;;;;;3.72;3.42;;;;;;;;;;12553727;28;20382;-74
2022/01/06 17:17:36;;;;;;;3.70;3.40;;;;;;;;;;12552163;28;20040;-73
2022/01/06 17:23:40;;;;;;;3.05;2.85;;;;;;;;;;12552010;28;20064;-74
2022/01/06 17:29:42;;;;;;;3.40;3.10;;;;;;;;;;12534043;28;20055;-74
2022/01/06 17:35:44;;;;;;;3.20;2.90;;;;;;;;;;12551774;28;20044;-74
2022/01/06 17:41:45;;;;;;;4.05;3.75;;;;;;;;;;12551264;28;20171;-75
2022/01/06 17:47:47;;;;;;;4.18;3.33;;;;;;;;;;12549133;28;20037;-74
2022/01/06 17:53:49;;;;;;;5.05;4.65;;;;;;;;;;12549662;28;20037;-74
2022/01/06 17:59:51;;;;;;;6.00;5.43;;;;;;;;;;12532670;28;20048;-74
2022/01/06 18:05:57;;;;;;;6.82;5.95;;;;;;;;;;12548988;28;20279;-74
2022/01/06 18:11:59;;;;;;;7.38;6.68;;;;;;;;;;12548569;28;20052;-73
2022/01/06 18:18:01;;;;;;;6.57;5.97;;;;;;;;;;12548284;28;20037;-73
2022/01/06 18:24:03;;;;;;;5.93;5.43;;;;;;;;;;12548990;28;20569;-74
2022/01/06 18:30:05;;;;;;;6.47;5.88;;;;;;;;;;12547908;28;20033;-75
2022/01/06 18:36:07;;;;;;;8.35;7.65;;;;;;;;;;12547548;28;20044;-74
2022/01/06 18:42:09;;;;;;;9.88;8.98;;;;;;;;;;12548666;28;20063;-73
2022/01/06 18:48:11;;;;;;;14.30;12.80;;;;;;;;;;12547171;28;20036;-74
2022/01/06 18:54:12;;;;;;;10.45;9.45;;;;;;;;;;12546879;28;20033;-74
2022/01/06 19:00:14;;;;;;;13.13;11.73;;;;;;;;;;12547700;28;20037;-74
2022/01/06 19:06:16;;;;;;;11.98;10.80;;;;;;;;;;12547301;28;20055;-73
2022/01/06 19:12:18;;;;;;;12.38;11.20;;;;;;;;;;12548451;28;20037;-74
2022/01/06 19:18:19;;;;;;;11.93;10.82;;;;;;;;;;12545379;28;20049;-74
2022/01/06 19:24:21;;;;;;;11.18;10.05;;;;;;;;;;12544788;28;20040;-74
2022/01/06 19:30:23;;;;;;;13.65;12.35;;;;;;;;;;12545027;28;20419;-73
2022/01/06 19:36:25;;;;;;;13.45;11.95;;;;;;;;;;12546073;28;20029;-73
2022/01/06 19:42:26;;;;;;;11.60;10.43;;;;;;;;;;12545493;28;20053;-74
2022/01/06 19:48:28;;;;;;;13.38;11.98;;;;;;;;;;12544381;28;20028;-73
2022/01/06 19:54:30;;;;;;;14.25;12.95;;;;;;;;;;12545178;28;20039;-76
2022/01/06 20:00:32;;;;;;;14.55;13.15;;;;;;;;;;12544865;28;20056;-74
2022/01/06 20:06:34;;;;;;;12.93;11.82;;;;;;;;;;12544578;28;20039;-74
2022/01/06 20:12:35;;;;;;;16.85;15.35;;;;;;;;;;12544673;28;20509;-73
2022/01/06 20:18:37;;;;;;;18.58;16.60;;;;;;;;;;12544347;28;20406;-74
2022/01/06 20:24:39;;;;;;;17.23;15.52;;;;;;;;;;12543342;28;20191;-73
2022/01/06 20:30:41;;;;;;;18.87;17.07;;;;;;;;;;12543399;28;20547;-74
2022/01/06 20:36:43;;;;;;;18.80;16.95;;;;;;;;;;12542164;28;20037;-73
2022/01/06 20:42:45;;;;;;;16.13;14.63;;;;;;;;;;12543343;28;20502;-74
2022/01/06 20:55:08;;;;;;;17.70;16.00;;;;;;;;;;12543438;28;20052;-73
2022/01/06 21:01:10;;;;;;;16.00;14.53;;;;;;;;;;12541862;28;20060;-73
2022/01/06 21:07:11;;;;;;;16.63;14.98;;;;;;;;;;12542082;28;20032;-74
2022/01/06 21:13:13;;;;;;;18.42;16.58;;;;;;;;;;12542720;28;20044;-73
2022/01/06 21:19:15;;;;;;;19.58;17.67;;;;;;;;;;12542872;28;20405;-73
2022/01/06 21:25:16;;;;;;;19.35;17.48;;;;;;;;;;12541488;28;20033;-73
2022/01/06 21:31:18;;;;;;;21.40;19.30;;;;;;;;;;12542502;28;20044;-73
2022/01/06 21:37:20;;;;;;;27.33;24.55;;;;;;;;;;12541486;28;20056;-74
2022/01/06 21:43:21;;;;;;;26.85;24.00;;;;;;;;;;12542264;28;20140;-74
2022/01/06 21:49:23;;;;;;;42.05;37.50;;;;;;;;;;12547641;28;20025;-74
2022/01/06 21:55:25;;;;;;;30.92;27.67;;;;;;;;;;12550914;28;20028;-74
2022/01/06 22:01:26;;;;;;;31.67;27.83;;;;;;;;;;12532764;28;20040;-74
2022/01/06 22:07:28;;;;;;;24.08;21.60;;;;;;;;;;12550456;28;20041;-74
2022/01/06 22:13:30;;;;;;;24.90;22.40;;;;;;;;;;12548964;28;20067;-74
2022/01/06 22:19:32;;;;;;;23.20;20.98;;;;;;;;;;12548392;28;20486;-74
2022/01/06 22:25:34;;;;;;;22.23;20.07;;;;;;;;;;12548202;28;20471;-73
2022/01/06 22:31:36;;;;;;;22.83;18.77;;;;;;;;;;12549162;28;20040;-74
2022/01/06 22:37:37;;;;;;;22.60;20.38;;;;;;;;;;12547641;28;20056;-74
2022/01/06 22:43:39;;;;;;;24.52;22.02;;;;;;;;;;12547628;28;20036;-74
2022/01/06 22:49:41;;;;;;;19.05;17.10;;;;;;;;;;12548490;28;20033;-74
2022/01/06 22:55:43;;;;;;;18.97;17.07;;;;;;;;;;12548161;28;20029;-74
2022/01/06 23:01:46;;;;;;;16.48;14.95;;;;;;;;;;12546560;28;20306;-73
2022/01/06 23:07:49;;;;;;;15.60;14.00;;;;;;;;;;12546648;28;20498;-73
2022/01/06 23:13:51;;;;;;;15.23;13.60;;;;;;;;;;12529528;28;20036;-73
2022/01/06 23:19:52;;;;;;;13.80;12.48;;;;;;;;;;12547058;28;20045;-74
2022/01/06 23:25:54;;;;;;;13.25;11.95;;;;;;;;;;12545503;28;20033;-73
2022/01/06 23:31:56;;;;;;;14.00;12.68;;;;;;;;;;12545236;28;20033;-74
2022/01/06 23:37:57;;;;;;;12.75;11.48;;;;;;;;;;12546281;28;20065;-74
2022/01/06 23:44:00;;;;;;;9.43;8.48;;;;;;;;;;12545689;28;20072;-74
2022/01/06 23:50:04;;;;;;;11.18;10.15;;;;;;;;;;12528101;28;20513;-73
2022/01/06 23:56:06;;;;;;;10.85;9.77;;;;;;;;;;12544516;28;20048;-73
